sensor_id;sensor_type;location;lat;lon;timestamp;temperature;humidity
42099;DHT22;27758;55.900;8.516;2022-08-06T00:02:03;14.50;99.90
42099;DHT22;27758;55.900;8.516;2022-08-06T00:04:29;14.50;99.90
42099;DHT22;27758;55.900;8.516;2022-08-06T00:06:55;14.50;99.90
42099;DHT22;27758;55.900;8.516;2022-08-06T00:09:21;14.40;99.90
42099;DHT22;27758;55.900;8.516;2022-08-06T00:11:47;14.40;99.90
42099;DHT22;27758;55.900;8.516;2022-08-06T00:14:13;14.40;99.90
42099;DHT22;27758;55.900;8.516;2022-08-06T00:16:39;14.30;99.90
42099;DHT22;27758;55.900;8.516;2022-08-06T00:19:05;14.40;99.90
42099;DHT22;27758;55.900;8.516;2022-08-06T00:21:32;14.40;99.90
42099;DHT22;27758;55.900;8.516;2022-08-06T00:23:58;14.30;99.90
42099;DHT22;27758;55.900;8.516;2022-08-06T00:26:24;14.30;99.90
42099;DHT22;27758;55.900;8.516;2022-08-06T00:28:50;14.30;99.90
42099;DHT22;27758;55.900;8.516;2022-08-06T00:31:16;14.20;99.90
42099;DHT22;27758;55.900;8.516;2022-08-06T00:33:42;14.20;99.90
42099;DHT22;27758;55.900;8.516;2022-08-06T00:36:09;14.20;99.90
42099;DHT22;27758;55.900;8.516;2022-08-06T00:38:35;14.20;99.90
42099;DHT22;27758;55.900;8.516;2022-08-06T00:41:02;14.20;99.90
42099;DHT22;27758;55.900;8.516;2022-08-06T00:43:28;14.20;99.90
42099;DHT22;27758;55.900;8.516;2022-08-06T00:45:54;14.20;99.90
42099;DHT22;27758;55.900;8.516;2022-08-06T00:48:20;14.30;99.90
42099;DHT22;27758;55.900;8.516;2022-08-06T00:50:46;14.30;99.90
42099;DHT22;27758;55.900;8.516;2022-08-06T00:53:12;14.30;99.90
42099;DHT22;27758;55.900;8.516;2022-08-06T00:55:38;14.30;99.90
42099;DHT22;27758;55.900;8.516;2022-08-06T00:58:05;14.20;99.90
42099;DHT22;27758;55.900;8.516;2022-08-06T01:00:32;14.20;99.90
42099;DHT22;27758;55.900;8.516;2022-08-06T01:02:58;14.20;99.90
42099;DHT22;27758;55.900;8.516;2022-08-06T01:05:24;14.20;99.90
42099;DHT22;27758;55.900;8.516;2022-08-06T01:07:50;14.20;99.90
42099;DHT22;27758;55.900;8.516;2022-08-06T01:10:16;14.20;99.90
42099;DHT22;27758;55.900;8.516;2022-08-06T01:12:42;14.10;99.90
42099;DHT22;27758;55.900;8.516;2022-08-06T01:15:08;14.20;99.90
42099;DHT22;27758;55.900;8.516;2022-08-06T01:20:44;14.20;99.90
42099;DHT22;27758;55.900;8.516;2022-08-06T01:28:49;14.20;99.90
42099;DHT22;27758;55.900;8.516;2022-08-06T01:31:33;14.20;99.90
42099;DHT22;27758;55.900;8.516;2022-08-06T01:34:07;14.20;99.90
42099;DHT22;27758;55.900;8.516;2022-08-06T01:36:42;14.20;99.90
42099;DHT22;27758;55.900;8.516;2022-08-06T01:39:11;14.20;99.90
42099;DHT22;27758;55.900;8.516;2022-08-06T01:41:44;14.10;99.90
42099;DHT22;27758;55.900;8.516;2022-08-06T01:44:15;14.10;99.90
42099;DHT22;27758;55.900;8.516;2022-08-06T01:46:44;14.10;99.90
42099;DHT22;27758;55.900;8.516;2022-08-06T01:49:11;14.00;99.90
42099;DHT22;27758;55.900;8.516;2022-08-06T01:51:38;14.00;99.90
42099;DHT22;27758;55.900;8.516;2022-08-06T01:54:06;14.00;99.90
42099;DHT22;27758;55.900;8.516;2022-08-06T01:56:34;14.00;99.90
42099;DHT22;27758;55.900;8.516;2022-08-06T01:59:00;13.90;99.90
42099;DHT22;27758;55.900;8.516;2022-08-06T02:01:27;13.90;99.90
42099;DHT22;27758;55.900;8.516;2022-08-06T02:03:55;13.90;99.90
42099;DHT22;27758;55.900;8.516;2022-08-06T02:06:22;13.90;99.90
42099;DHT22;27758;55.900;8.516;2022-08-06T02:08:50;13.90;99.90
42099;DHT22;27758;55.900;8.516;2022-08-06T02:11:16;13.90;99.90
42099;DHT22;27758;55.900;8.516;2022-08-06T02:13:42;13.90;99.90
42099;DHT22;27758;55.900;8.516;2022-08-06T02:16:09;13.90;99.90
42099;DHT22;27758;55.900;8.516;2022-08-06T02:18:37;14.00;99.90
42099;DHT22;27758;55.900;8.516;2022-08-06T02:21:03;14.00;99.90
42099;DHT22;27758;55.900;8.516;2022-08-06T02:23:31;14.00;99.90
42099;DHT22;27758;55.900;8.516;2022-08-06T02:25:57;14.00;99.90
42099;DHT22;27758;55.900;8.516;2022-08-06T02:28:23;13.90;99.90
42099;DHT22;27758;55.900;8.516;2022-08-06T02:30:52;13.90;99.90
42099;DHT22;27758;55.900;8.516;2022-08-06T02:33:18;13.90;99.90
42099;DHT22;27758;55.900;8.516;2022-08-06T02:35:52;13.90;99.90
42099;DHT22;27758;55.900;8.516;2022-08-06T02:40:46;13.90;99.90
42099;DHT22;27758;55.900;8.516;2022-08-06T02:43:18;13.90;99.90
42099;DHT22;27758;55.900;8.516;2022-08-06T02:45:57;13.90;99.90
42099;DHT22;27758;55.900;8.516;2022-08-06T02:48:28;14.00;99.90
42099;DHT22;27758;55.900;8.516;2022-08-06T02:50:55;14.00;99.90
42099;DHT22;27758;55.900;8.516;2022-08-06T02:53:23;14.00;99.90
42099;DHT22;27758;55.900;8.516;2022-08-06T02:55:51;14.00;99.90
42099;DHT22;27758;55.900;8.516;2022-08-06T02:58:34;14.00;99.90
42099;DHT22;27758;55.900;8.516;2022-08-06T03:01:01;14.00;99.90
42099;DHT22;27758;55.900;8.516;2022-08-06T03:03:28;14.00;99.90
42099;DHT22;27758;55.900;8.516;2022-08-06T03:05:54;14.00;99.90
42099;DHT22;27758;55.900;8.516;2022-08-06T03:08:21;14.00;99.90
42099;DHT22;27758;55.900;8.516;2022-08-06T03:10:47;14.00;99.90
42099;DHT22;27758;55.900;8.516;2022-08-06T03:13:14;14.00;99.90
42099;DHT22;27758;55.900;8.516;2022-08-06T03:15:41;14.00;99.90
42099;DHT22;27758;55.900;8.516;2022-08-06T03:18:07;13.90;99.90
42099;DHT22;27758;55.900;8.516;2022-08-06T03:20:34;13.90;99.90
42099;DHT22;27758;55.900;8.516;2022-08-06T03:23:02;13.90;99.90
42099;DHT22;27758;55.900;8.516;2022-08-06T03:25:30;13.90;99.90
42099;DHT22;27758;55.900;8.516;2022-08-06T03:27:57;13.90;99.90
42099;DHT22;27758;55.900;8.516;2022-08-06T03:30:26;14.00;99.90
42099;DHT22;27758;55.900;8.516;2022-08-06T03:32:52;14.00;99.90
42099;DHT22;27758;55.900;8.516;2022-08-06T03:35:18;14.00;99.90
42099;DHT22;27758;55.900;8.516;2022-08-06T03:37:45;14.00;99.90
42099;DHT22;27758;55.900;8.516;2022-08-06T03:40:12;14.10;99.90
42099;DHT22;27758;55.900;8.516;2022-08-06T03:42:38;14.10;99.90
42099;DHT22;27758;55.900;8.516;2022-08-06T03:45:04;14.10;99.90
42099;DHT22;27758;55.900;8.516;2022-08-06T03:47:31;14.10;99.90
42099;DHT22;27758;55.900;8.516;2022-08-06T03:50:02;14.10;99.90
42099;DHT22;27758;55.900;8.516;2022-08-06T03:52:30;14.10;99.90
42099;DHT22;27758;55.900;8.516;2022-08-06T03:55:01;14.10;99.90
42099;DHT22;27758;55.900;8.516;2022-08-06T03:57:37;14.10;99.90
42099;DHT22;27758;55.900;8.516;2022-08-06T04:00:03;14.10;99.90
42099;DHT22;27758;55.900;8.516;2022-08-06T04:02:32;14.10;99.90
42099;DHT22;27758;55.900;8.516;2022-08-06T04:04:59;14.10;99.90
42099;DHT22;27758;55.900;8.516;2022-08-06T04:07:25;14.20;99.90
42099;DHT22;27758;55.900;8.516;2022-08-06T04:09:52;14.20;99.90
42099;DHT22;27758;55.900;8.516;2022-08-06T04:12:18;14.40;99.90
42099;DHT22;27758;55.900;8.516;2022-08-06T04:14:44;14.50;99.90
42099;DHT22;27758;55.900;8.516;2022-08-06T04:17:10;14.60;99.90
42099;DHT22;27758;55.900;8.516;2022-08-06T04:19:36;14.70;99.90
42099;DHT22;27758;55.900;8.516;2022-08-06T04:22:02;14.70;99.90
42099;DHT22;27758;55.900;8.516;2022-08-06T04:24:27;14.60;99.90
42099;DHT22;27758;55.900;8.516;2022-08-06T04:26:53;14.60;99.90
42099;DHT22;27758;55.900;8.516;2022-08-06T04:29:20;14.50;99.90
42099;DHT22;27758;55.900;8.516;2022-08-06T04:31:47;14.50;99.90
42099;DHT22;27758;55.900;8.516;2022-08-06T04:34:16;14.50;99.90
42099;DHT22;27758;55.900;8.516;2022-08-06T04:36:43;14.50;99.90
42099;DHT22;27758;55.900;8.516;2022-08-06T04:39:09;14.50;99.90
42099;DHT22;27758;55.900;8.516;2022-08-06T04:41:35;14.50;99.90
42099;DHT22;27758;55.900;8.516;2022-08-06T04:44:01;14.50;99.90
42099;DHT22;27758;55.900;8.516;2022-08-06T04:46:26;14.50;99.90
42099;DHT22;27758;55.900;8.516;2022-08-06T04:48:52;14.40;99.90
42099;DHT22;27758;55.900;8.516;2022-08-06T04:51:18;14.40;99.90
42099;DHT22;27758;55.900;8.516;2022-08-06T04:53:47;14.30;99.90
42099;DHT22;27758;55.900;8.516;2022-08-06T04:56:12;14.30;99.90
42099;DHT22;27758;55.900;8.516;2022-08-06T04:58:38;14.30;99.90
42099;DHT22;27758;55.900;8.516;2022-08-06T05:01:04;14.40;99.90
42099;DHT22;27758;55.900;8.516;2022-08-06T05:03:30;14.50;99.90
42099;DHT22;27758;55.900;8.516;2022-08-06T05:06:02;14.60;99.90
42099;DHT22;27758;55.900;8.516;2022-08-06T05:08:29;14.80;99.90
42099;DHT22;27758;55.900;8.516;2022-08-06T05:11:02;15.00;99.90
42099;DHT22;27758;55.900;8.516;2022-08-06T05:13:30;15.10;99.90
42099;DHT22;27758;55.900;8.516;2022-08-06T05:15:59;15.30;99.90
42099;DHT22;27758;55.900;8.516;2022-08-06T05:18:29;15.40;99.90
42099;DHT22;27758;55.900;8.516;2022-08-06T05:20:55;15.50;99.90
42099;DHT22;27758;55.900;8.516;2022-08-06T05:23:24;15.40;99.90
42099;DHT22;27758;55.900;8.516;2022-08-06T05:25:50;15.50;99.90
42099;DHT22;27758;55.900;8.516;2022-08-06T05:28:16;15.50;99.90
42099;DHT22;27758;55.900;8.516;2022-08-06T05:30:47;15.50;99.90
42099;DHT22;27758;55.900;8.516;2022-08-06T05:33:23;15.60;99.90
42099;DHT22;27758;55.900;8.516;2022-08-06T05:35:49;15.70;99.90
42099;DHT22;27758;55.900;8.516;2022-08-06T05:38:15;15.70;99.90
42099;DHT22;27758;55.900;8.516;2022-08-06T05:40:40;15.80;99.90
42099;DHT22;27758;55.900;8.516;2022-08-06T05:43:06;15.90;99.90
42099;DHT22;27758;55.900;8.516;2022-08-06T05:45:32;16.00;99.90
42099;DHT22;27758;55.900;8.516;2022-08-06T05:47:58;16.00;99.90
42099;DHT22;27758;55.900;8.516;2022-08-06T05:50:27;16.10;99.90
42099;DHT22;27758;55.900;8.516;2022-08-06T05:52:55;16.20;99.90
42099;DHT22;27758;55.900;8.516;2022-08-06T05:55:25;16.20;99.90
42099;DHT22;27758;55.900;8.516;2022-08-06T05:58:02;16.30;99.90
42099;DHT22;27758;55.900;8.516;2022-08-06T06:00:30;16.40;99.90
42099;DHT22;27758;55.900;8.516;2022-08-06T06:02:58;16.50;99.90
42099;DHT22;27758;55.900;8.516;2022-08-06T06:05:24;16.50;99.90
42099;DHT22;27758;55.900;8.516;2022-08-06T06:07:51;16.40;99.90
42099;DHT22;27758;55.900;8.516;2022-08-06T06:10:18;16.30;99.90
42099;DHT22;27758;55.900;8.516;2022-08-06T06:12:44;16.10;99.90
42099;DHT22;27758;55.900;8.516;2022-08-06T06:15:10;15.90;99.90
42099;DHT22;27758;55.900;8.516;2022-08-06T06:20:13;16.20;99.90
42099;DHT22;27758;55.900;8.516;2022-08-06T06:22:43;16.40;99.90
42099;DHT22;27758;55.900;8.516;2022-08-06T06:27:59;16.90;99.90
42099;DHT22;27758;55.900;8.516;2022-08-06T06:30:29;17.00;99.90
42099;DHT22;27758;55.900;8.516;2022-08-06T06:33:00;17.10;99.90
42099;DHT22;27758;55.900;8.516;2022-08-06T06:46:17;16.80;99.90
42099;DHT22;27758;55.900;8.516;2022-08-06T06:51:14;16.80;99.90
42099;DHT22;27758;55.900;8.516;2022-08-06T06:53:44;16.80;99.90
42099;DHT22;27758;55.900;8.516;2022-08-06T06:56:10;16.80;99.90
42099;DHT22;27758;55.900;8.516;2022-08-06T06:58:40;16.70;99.90
42099;DHT22;27758;55.900;8.516;2022-08-06T07:01:09;16.50;99.90
42099;DHT22;27758;55.900;8.516;2022-08-06T07:03:36;16.30;99.90
42099;DHT22;27758;55.900;8.516;2022-08-06T07:06:02;16.30;99.90
42099;DHT22;27758;55.900;8.516;2022-08-06T07:08:31;16.30;99.90
42099;DHT22;27758;55.900;8.516;2022-08-06T07:10:57;16.40;99.90
42099;DHT22;27758;55.900;8.516;2022-08-06T07:13:24;16.60;99.90
42099;DHT22;27758;55.900;8.516;2022-08-06T07:15:50;16.90;99.90
42099;DHT22;27758;55.900;8.516;2022-08-06T07:18:17;17.20;99.90
42099;DHT22;27758;55.900;8.516;2022-08-06T07:20:43;17.40;99.90
42099;DHT22;27758;55.900;8.516;2022-08-06T07:23:09;17.50;99.90
42099;DHT22;27758;55.900;8.516;2022-08-06T07:25:42;17.60;99.90
42099;DHT22;27758;55.900;8.516;2022-08-06T07:28:09;17.70;99.90
42099;DHT22;27758;55.900;8.516;2022-08-06T07:30:35;18.10;99.90
42099;DHT22;27758;55.900;8.516;2022-08-06T07:33:02;18.40;99.90
42099;DHT22;27758;55.900;8.516;2022-08-06T07:35:28;18.60;99.90
42099;DHT22;27758;55.900;8.516;2022-08-06T07:37:59;18.90;99.90
42099;DHT22;27758;55.900;8.516;2022-08-06T07:40:30;18.90;99.90
42099;DHT22;27758;55.900;8.516;2022-08-06T07:43:01;18.90;99.90
42099;DHT22;27758;55.900;8.516;2022-08-06T07:45:27;19.00;99.90
42099;DHT22;27758;55.900;8.516;2022-08-06T07:47:54;19.20;99.90
42099;DHT22;27758;55.900;8.516;2022-08-06T07:50:22;19.40;99.90
42099;DHT22;27758;55.900;8.516;2022-08-06T07:52:48;19.20;99.90
42099;DHT22;27758;55.900;8.516;2022-08-06T07:55:15;19.10;99.90
42099;DHT22;27758;55.900;8.516;2022-08-06T07:57:40;19.00;99.90
42099;DHT22;27758;55.900;8.516;2022-08-06T08:00:08;19.40;99.90
42099;DHT22;27758;55.900;8.516;2022-08-06T08:02:34;19.40;99.90
42099;DHT22;27758;55.900;8.516;2022-08-06T08:05:00;19.40;99.90
42099;DHT22;27758;55.900;8.516;2022-08-06T08:07:45;19.40;99.90
42099;DHT22;27758;55.900;8.516;2022-08-06T08:10:11;19.20;99.90
42099;DHT22;27758;55.900;8.516;2022-08-06T08:12:37;19.10;99.90
42099;DHT22;27758;55.900;8.516;2022-08-06T08:15:04;19.10;99.90
42099;DHT22;27758;55.900;8.516;2022-08-06T08:17:30;19.30;99.90
42099;DHT22;27758;55.900;8.516;2022-08-06T08:20:00;19.50;99.90
42099;DHT22;27758;55.900;8.516;2022-08-06T08:22:27;19.80;99.90
42099;DHT22;27758;55.900;8.516;2022-08-06T08:24:55;19.80;99.90
42099;DHT22;27758;55.900;8.516;2022-08-06T08:27:21;19.40;99.90
42099;DHT22;27758;55.900;8.516;2022-08-06T08:29:47;19.40;99.90
42099;DHT22;27758;55.900;8.516;2022-08-06T08:32:13;19.60;99.90
42099;DHT22;27758;55.900;8.516;2022-08-06T08:34:38;19.50;99.90
42099;DHT22;27758;55.900;8.516;2022-08-06T08:37:04;19.20;99.90
42099;DHT22;27758;55.900;8.516;2022-08-06T08:39:30;18.90;99.90
42099;DHT22;27758;55.900;8.516;2022-08-06T08:44:54;18.70;99.90
42099;DHT22;27758;55.900;8.516;2022-08-06T08:47:23;18.90;99.90
42099;DHT22;27758;55.900;8.516;2022-08-06T08:49:52;19.20;99.90
42099;DHT22;27758;55.900;8.516;2022-08-06T08:52:25;19.30;99.90
42099;DHT22;27758;55.900;8.516;2022-08-06T08:54:55;19.40;99.90
42099;DHT22;27758;55.900;8.516;2022-08-06T08:57:22;19.50;99.90
42099;DHT22;27758;55.900;8.516;2022-08-06T08:59:48;19.70;99.90
42099;DHT22;27758;55.900;8.516;2022-08-06T09:02:14;20.10;99.90
42099;DHT22;27758;55.900;8.516;2022-08-06T09:04:40;20.40;99.90
42099;DHT22;27758;55.900;8.516;2022-08-06T09:07:07;20.80;99.90
42099;DHT22;27758;55.900;8.516;2022-08-06T09:09:33;20.90;99.90
42099;DHT22;27758;55.900;8.516;2022-08-06T09:12:00;21.10;99.90
42099;DHT22;27758;55.900;8.516;2022-08-06T09:14:26;21.00;99.90
42099;DHT22;27758;55.900;8.516;2022-08-06T09:16:51;21.20;99.90
42099;DHT22;27758;55.900;8.516;2022-08-06T09:19:17;21.10;99.90
42099;DHT22;27758;55.900;8.516;2022-08-06T09:21:44;21.20;99.90
42099;DHT22;27758;55.900;8.516;2022-08-06T09:24:09;21.00;99.90
42099;DHT22;27758;55.900;8.516;2022-08-06T09:26:35;20.40;99.90
42099;DHT22;27758;55.900;8.516;2022-08-06T09:29:01;20.20;99.90
42099;DHT22;27758;55.900;8.516;2022-08-06T09:31:27;20.20;99.90
42099;DHT22;27758;55.900;8.516;2022-08-06T09:33:54;20.20;99.90
42099;DHT22;27758;55.900;8.516;2022-08-06T09:36:20;20.20;99.90
42099;DHT22;27758;55.900;8.516;2022-08-06T09:38:54;20.40;99.90
42099;DHT22;27758;55.900;8.516;2022-08-06T09:41:20;20.70;99.90
42099;DHT22;27758;55.900;8.516;2022-08-06T09:43:48;20.50;99.90
42099;DHT22;27758;55.900;8.516;2022-08-06T09:46:14;20.30;99.90
42099;DHT22;27758;55.900;8.516;2022-08-06T09:48:56;20.60;99.90
42099;DHT22;27758;55.900;8.516;2022-08-06T09:51:22;21.00;99.90
42099;DHT22;27758;55.900;8.516;2022-08-06T09:53:51;21.10;99.90
42099;DHT22;27758;55.900;8.516;2022-08-06T09:56:17;21.00;99.90
42099;DHT22;27758;55.900;8.516;2022-08-06T09:58:43;20.40;99.90
42099;DHT22;27758;55.900;8.516;2022-08-06T10:01:12;19.90;99.90
42099;DHT22;27758;55.900;8.516;2022-08-06T10:03:39;20.30;99.90
42099;DHT22;27758;55.900;8.516;2022-08-06T10:06:06;20.20;99.90
42099;DHT22;27758;55.900;8.516;2022-08-06T10:08:31;20.10;99.90
42099;DHT22;27758;55.900;8.516;2022-08-06T10:10:57;19.80;99.90
42099;DHT22;27758;55.900;8.516;2022-08-06T10:13:28;19.90;99.90
42099;DHT22;27758;55.900;8.516;2022-08-06T10:15:54;20.70;99.90
42099;DHT22;27758;55.900;8.516;2022-08-06T10:21:02;21.10;99.90
42099;DHT22;27758;55.900;8.516;2022-08-06T10:23:30;21.40;99.90
42099;DHT22;27758;55.900;8.516;2022-08-06T10:25:56;21.70;99.90
42099;DHT22;27758;55.900;8.516;2022-08-06T10:28:23;21.60;99.90
42099;DHT22;27758;55.900;8.516;2022-08-06T10:30:51;21.10;99.90
42099;DHT22;27758;55.900;8.516;2022-08-06T10:33:17;20.90;99.90
42099;DHT22;27758;55.900;8.516;2022-08-06T10:35:43;20.80;99.90
42099;DHT22;27758;55.900;8.516;2022-08-06T10:38:12;20.80;99.90
42099;DHT22;27758;55.900;8.516;2022-08-06T10:40:39;21.10;99.90
42099;DHT22;27758;55.900;8.516;2022-08-06T10:43:05;21.20;99.90
42099;DHT22;27758;55.900;8.516;2022-08-06T10:45:32;21.00;99.90
42099;DHT22;27758;55.900;8.516;2022-08-06T10:47:59;20.80;99.90
42099;DHT22;27758;55.900;8.516;2022-08-06T10:50:25;20.70;99.90
42099;DHT22;27758;55.900;8.516;2022-08-06T10:52:50;20.90;99.90
42099;DHT22;27758;55.900;8.516;2022-08-06T10:55:17;20.70;99.90
42099;DHT22;27758;55.900;8.516;2022-08-06T10:57:43;20.70;99.90
42099;DHT22;27758;55.900;8.516;2022-08-06T11:00:09;20.60;99.90
42099;DHT22;27758;55.900;8.516;2022-08-06T11:05:17;21.10;99.90
42099;DHT22;27758;55.900;8.516;2022-08-06T11:12:41;22.00;99.90
42099;DHT22;27758;55.900;8.516;2022-08-06T11:15:09;22.20;99.90
42099;DHT22;27758;55.900;8.516;2022-08-06T11:17:51;22.20;99.90
42099;DHT22;27758;55.900;8.516;2022-08-06T11:22:59;22.30;99.90
42099;DHT22;27758;55.900;8.516;2022-08-06T11:28:03;22.60;99.90
42099;DHT22;27758;55.900;8.516;2022-08-06T11:30:43;22.10;99.90
42099;DHT22;27758;55.900;8.516;2022-08-06T11:33:09;21.70;99.90
42099;DHT22;27758;55.900;8.516;2022-08-06T11:35:38;21.20;99.90
42099;DHT22;27758;55.900;8.516;2022-08-06T11:38:05;21.00;99.90
42099;DHT22;27758;55.900;8.516;2022-08-06T11:51:48;21.90;99.90
42099;DHT22;27758;55.900;8.516;2022-08-06T11:59:46;20.70;99.90
42099;DHT22;27758;55.900;8.516;2022-08-06T12:02:16;20.40;99.90
42099;DHT22;27758;55.900;8.516;2022-08-06T12:04:43;20.60;99.90
42099;DHT22;27758;55.900;8.516;2022-08-06T12:09:47;21.30;99.90
42099;DHT22;27758;55.900;8.516;2022-08-06T12:14:49;21.30;99.90
42099;DHT22;27758;55.900;8.516;2022-08-06T12:17:15;21.10;99.90
42099;DHT22;27758;55.900;8.516;2022-08-06T12:19:44;20.90;99.90
42099;DHT22;27758;55.900;8.516;2022-08-06T12:22:14;20.40;99.90
42099;DHT22;27758;55.900;8.516;2022-08-06T12:24:43;19.80;99.90
42099;DHT22;27758;55.900;8.516;2022-08-06T12:27:10;19.30;99.90
42099;DHT22;27758;55.900;8.516;2022-08-06T12:29:36;18.80;99.90
42099;DHT22;27758;55.900;8.516;2022-08-06T12:34:47;18.70;99.90
42099;DHT22;27758;55.900;8.516;2022-08-06T12:37:13;18.70;99.90
42099;DHT22;27758;55.900;8.516;2022-08-06T12:39:42;18.80;99.90
42099;DHT22;27758;55.900;8.516;2022-08-06T12:42:26;18.80;99.90
42099;DHT22;27758;55.900;8.516;2022-08-06T12:44:53;18.70;99.90
42099;DHT22;27758;55.900;8.516;2022-08-06T12:47:19;18.80;99.90
42099;DHT22;27758;55.900;8.516;2022-08-06T12:49:45;18.80;99.90
42099;DHT22;27758;55.900;8.516;2022-08-06T12:52:11;19.00;99.90
42099;DHT22;27758;55.900;8.516;2022-08-06T12:54:37;19.10;99.90
42099;DHT22;27758;55.900;8.516;2022-08-06T12:57:03;19.40;99.90
42099;DHT22;27758;55.900;8.516;2022-08-06T12:59:29;19.50;99.90
42099;DHT22;27758;55.900;8.516;2022-08-06T13:01:55;19.60;99.90
42099;DHT22;27758;55.900;8.516;2022-08-06T13:04:21;20.10;99.90
42099;DHT22;27758;55.900;8.516;2022-08-06T13:06:48;20.30;99.90
42099;DHT22;27758;55.900;8.516;2022-08-06T13:09:26;20.50;99.90
42099;DHT22;27758;55.900;8.516;2022-08-06T13:11:52;20.80;99.90
42099;DHT22;27758;55.900;8.516;2022-08-06T13:14:18;20.60;99.90
42099;DHT22;27758;55.900;8.516;2022-08-06T13:16:47;20.40;99.90
42099;DHT22;27758;55.900;8.516;2022-08-06T13:19:14;20.50;99.90
42099;DHT22;27758;55.900;8.516;2022-08-06T13:21:40;20.40;99.90
42099;DHT22;27758;55.900;8.516;2022-08-06T13:24:07;20.30;99.90
42099;DHT22;27758;55.900;8.516;2022-08-06T13:26:33;20.10;99.90
42099;DHT22;27758;55.900;8.516;2022-08-06T13:31:39;20.40;99.90
42099;DHT22;27758;55.900;8.516;2022-08-06T13:34:06;20.30;99.90
42099;DHT22;27758;55.900;8.516;2022-08-06T13:36:33;20.20;99.90
42099;DHT22;27758;55.900;8.516;2022-08-06T13:39:21;20.00;99.90
42099;DHT22;27758;55.900;8.516;2022-08-06T13:41:48;20.00;99.90
42099;DHT22;27758;55.900;8.516;2022-08-06T13:44:43;20.10;99.90
42099;DHT22;27758;55.900;8.516;2022-08-06T13:47:10;20.20;99.90
42099;DHT22;27758;55.900;8.516;2022-08-06T13:49:42;20.20;99.90
42099;DHT22;27758;55.900;8.516;2022-08-06T13:52:08;20.00;99.90
42099;DHT22;27758;55.900;8.516;2022-08-06T13:54:34;20.00;99.90
42099;DHT22;27758;55.900;8.516;2022-08-06T13:56:59;19.90;99.90
42099;DHT22;27758;55.900;8.516;2022-08-06T13:59:26;19.70;99.90
42099;DHT22;27758;55.900;8.516;2022-08-06T14:01:52;19.70;99.90
42099;DHT22;27758;55.900;8.516;2022-08-06T14:04:19;19.60;99.90
42099;DHT22;27758;55.900;8.516;2022-08-06T14:06:48;19.40;99.90
42099;DHT22;27758;55.900;8.516;2022-08-06T14:09:14;19.20;99.90
42099;DHT22;27758;55.900;8.516;2022-08-06T14:11:40;19.00;99.90
42099;DHT22;27758;55.900;8.516;2022-08-06T14:14:07;18.70;99.90
42099;DHT22;27758;55.900;8.516;2022-08-06T14:16:32;18.60;99.90
42099;DHT22;27758;55.900;8.516;2022-08-06T14:18:58;18.70;99.90
42099;DHT22;27758;55.900;8.516;2022-08-06T14:21:24;19.00;99.90
42099;DHT22;27758;55.900;8.516;2022-08-06T14:23:49;19.20;99.90
42099;DHT22;27758;55.900;8.516;2022-08-06T14:26:15;19.50;99.90
42099;DHT22;27758;55.900;8.516;2022-08-06T14:28:41;19.40;99.90
42099;DHT22;27758;55.900;8.516;2022-08-06T14:31:07;19.20;99.90
42099;DHT22;27758;55.900;8.516;2022-08-06T14:33:33;19.00;99.90
42099;DHT22;27758;55.900;8.516;2022-08-06T14:35:59;18.60;99.90
42099;DHT22;27758;55.900;8.516;2022-08-06T14:38:25;18.30;99.90
42099;DHT22;27758;55.900;8.516;2022-08-06T14:40:50;18.00;99.90
42099;DHT22;27758;55.900;8.516;2022-08-06T14:43:34;17.60;99.90
42099;DHT22;27758;55.900;8.516;2022-08-06T14:46:19;17.30;99.90
42099;DHT22;27758;55.900;8.516;2022-08-06T14:48:44;17.20;99.90
42099;DHT22;27758;55.900;8.516;2022-08-06T14:51:10;17.10;99.90
42099;DHT22;27758;55.900;8.516;2022-08-06T14:53:36;17.10;99.90
42099;DHT22;27758;55.900;8.516;2022-08-06T14:56:01;17.20;99.90
42099;DHT22;27758;55.900;8.516;2022-08-06T14:58:27;17.20;99.90
42099;DHT22;27758;55.900;8.516;2022-08-06T15:00:53;17.30;99.90
42099;DHT22;27758;55.900;8.516;2022-08-06T15:03:18;17.60;99.90
42099;DHT22;27758;55.900;8.516;2022-08-06T15:05:44;17.80;99.90
42099;DHT22;27758;55.900;8.516;2022-08-06T15:08:10;17.90;99.90
42099;DHT22;27758;55.900;8.516;2022-08-06T15:10:37;18.20;99.90
42099;DHT22;27758;55.900;8.516;2022-08-06T15:13:03;18.40;99.90
42099;DHT22;27758;55.900;8.516;2022-08-06T15:15:30;18.30;99.90
42099;DHT22;27758;55.900;8.516;2022-08-06T15:17:56;18.30;99.90
42099;DHT22;27758;55.900;8.516;2022-08-06T15:20:21;18.20;99.90
42099;DHT22;27758;55.900;8.516;2022-08-06T15:22:47;18.00;99.90
42099;DHT22;27758;55.900;8.516;2022-08-06T15:25:16;17.90;99.90
42099;DHT22;27758;55.900;8.516;2022-08-06T15:27:43;17.80;99.90
42099;DHT22;27758;55.900;8.516;2022-08-06T15:30:09;17.60;99.90
42099;DHT22;27758;55.900;8.516;2022-08-06T15:32:35;17.40;99.90
42099;DHT22;27758;55.900;8.516;2022-08-06T15:35:01;17.30;99.90
42099;DHT22;27758;55.900;8.516;2022-08-06T15:37:26;17.20;99.90
42099;DHT22;27758;55.900;8.516;2022-08-06T15:39:52;17.20;99.90
42099;DHT22;27758;55.900;8.516;2022-08-06T15:42:18;17.20;99.90
42099;DHT22;27758;55.900;8.516;2022-08-06T15:44:44;17.30;99.90
42099;DHT22;27758;55.900;8.516;2022-08-06T15:47:10;17.40;99.90
42099;DHT22;27758;55.900;8.516;2022-08-06T15:49:36;17.50;99.90
42099;DHT22;27758;55.900;8.516;2022-08-06T15:52:02;17.60;99.90
42099;DHT22;27758;55.900;8.516;2022-08-06T15:54:28;17.70;99.90
42099;DHT22;27758;55.900;8.516;2022-08-06T15:56:55;17.80;99.90
42099;DHT22;27758;55.900;8.516;2022-08-06T15:59:21;17.80;99.90
42099;DHT22;27758;55.900;8.516;2022-08-06T16:01:47;17.80;99.90
42099;DHT22;27758;55.900;8.516;2022-08-06T16:04:12;17.80;99.90
42099;DHT22;27758;55.900;8.516;2022-08-06T16:06:38;17.80;99.90
42099;DHT22;27758;55.900;8.516;2022-08-06T16:09:04;17.80;99.90
42099;DHT22;27758;55.900;8.516;2022-08-06T16:11:29;17.70;99.90
42099;DHT22;27758;55.900;8.516;2022-08-06T16:13:55;17.80;99.90
42099;DHT22;27758;55.900;8.516;2022-08-06T16:16:21;17.70;99.90
42099;DHT22;27758;55.900;8.516;2022-08-06T16:18:47;17.80;99.90
42099;DHT22;27758;55.900;8.516;2022-08-06T16:21:13;17.80;99.90
42099;DHT22;27758;55.900;8.516;2022-08-06T16:23:39;17.80;99.90
42099;DHT22;27758;55.900;8.516;2022-08-06T16:26:05;17.90;99.90
42099;DHT22;27758;55.900;8.516;2022-08-06T16:28:30;18.10;99.90
42099;DHT22;27758;55.900;8.516;2022-08-06T16:30:56;18.30;99.90
42099;DHT22;27758;55.900;8.516;2022-08-06T16:33:22;18.40;99.90
42099;DHT22;27758;55.900;8.516;2022-08-06T16:35:48;18.40;99.90
42099;DHT22;27758;55.900;8.516;2022-08-06T16:38:16;18.40;99.90
42099;DHT22;27758;55.900;8.516;2022-08-06T16:40:42;18.40;99.90
42099;DHT22;27758;55.900;8.516;2022-08-06T16:43:08;18.30;99.90
42099;DHT22;27758;55.900;8.516;2022-08-06T16:45:34;18.30;99.90
42099;DHT22;27758;55.900;8.516;2022-08-06T16:47:59;18.30;99.90